ORER/EBL METAR and TAF weather

Enter ICAO airport designator
Station Type Date Time Source
ORER METAR 2020/10/29 15:00 UTC NOAA

ORER 291500Z 25005KT 7000 NSC 26/M06 Q1019 NOSIG


Station Type Date Time Source
ORER Decoded METAR 2020/10/29 15:00 UTC NOAA

Station name not available
Oct 29, 2020 - 11:00 AM EDT / 2020.10.29 1500 UTC
Wind: from the WSW (250 degrees) at 6 MPH (5 KT):0
Visibility: 4 mile(s):0
Temperature: 78 F (26 C)
Dew Point: 21 F (-6 C)
Relative Humidity: 11%
Pressure (altimeter): 30.09 in. Hg (1019 hPa)
ob: ORER 291500Z 25005KT 7000 NSC 26/M06 Q1019 NOSIG
cycle: 15

Station Type Date Time Source
ORER TAF 2020/10/29 12:40 UTC NOAA

TAF ORER 291600Z 2912/3012 21010KT 8000 NSC

Example: see airport list